createdAt,value
2017-10-25T00:02:01.284Z,95453.07
2017-10-25T00:04:29.631Z,95460.80
2017-10-25T00:06:57.996Z,95454.24
2017-10-25T00:09:26.339Z,95458.51
2017-10-25T00:11:54.707Z,95448.23
2017-10-25T00:14:23.046Z,95444.72
2017-10-25T00:16:51.391Z,95443.89
2017-10-25T00:19:19.738Z,95438.69
2017-10-25T00:21:48.118Z,95438.06
2017-10-25T00:24:16.462Z,95445.22
2017-10-25T00:26:44.820Z,95442.30
2017-10-25T00:29:13.166Z,95437.33
2017-10-25T00:31:41.526Z,95430.55
2017-10-25T00:34:09.894Z,95432.70
2017-10-25T00:36:38.300Z,95437.49
2017-10-25T00:39:06.673Z,95440.25
2017-10-25T00:41:35.047Z,95433.02
2017-10-25T00:44:03.416Z,95434.47
2017-10-25T00:46:31.794Z,95439.28
2017-10-25T00:49:00.178Z,95436.69
2017-10-25T00:51:28.569Z,95442.17
2017-10-25T00:53:56.926Z,95445.81
2017-10-25T00:56:25.310Z,95440.90
2017-10-25T00:58:53.676Z,95436.55
2017-10-25T01:01:22.074Z,95432.36
2017-10-25T01:03:50.428Z,95430.42
2017-10-25T01:06:18.807Z,95437.13
2017-10-25T01:08:47.167Z,95438.45
2017-10-25T01:11:15.548Z,95438.34
2017-10-25T01:13:43.902Z,95429.09
2017-10-25T01:16:12.286Z,95431.57
2017-10-25T01:18:40.668Z,95424.70
2017-10-25T01:21:09.057Z,95425.16
2017-10-25T01:23:37.415Z,95425.41
2017-10-25T01:26:05.771Z,95421.92
2017-10-25T01:28:34.131Z,95426.98
2017-10-25T01:31:02.507Z,95430.52
2017-10-25T01:33:30.859Z,95416.03
2017-10-25T01:35:59.238Z,95419.41
2017-10-25T01:38:27.622Z,95416.92
2017-10-25T01:40:56.030Z,95413.73
2017-10-25T01:43:24.437Z,95410.22
2017-10-25T01:45:52.784Z,95405.52
2017-10-25T01:48:21.184Z,95410.35
2017-10-25T01:50:49.565Z,95414.89
2017-10-25T01:53:17.923Z,95407.47
2017-10-25T01:55:46.312Z,95401.48
2017-10-25T01:58:14.663Z,95392.23
2017-10-25T02:00:43.054Z,95400.95
2017-10-25T02:03:11.434Z,95395.66
2017-10-25T02:05:39.815Z,95398.76
2017-10-25T02:08:08.200Z,95395.29
2017-10-25T02:10:36.592Z,95399.64
2017-10-25T02:13:04.975Z,95398.26
2017-10-25T02:15:33.328Z,95396.01
2017-10-25T02:18:01.702Z,95410.57
2017-10-25T02:20:30.054Z,95403.88
2017-10-25T02:22:58.433Z,95395.95
2017-10-25T02:25:26.782Z,95393.02
2017-10-25T02:27:55.172Z,95393.95
2017-10-25T02:30:23.525Z,95388.20
2017-10-25T02:32:51.894Z,95385.47
2017-10-25T02:35:20.239Z,95387.90
2017-10-25T02:37:48.620Z,95390.76
2017-10-25T02:40:16.957Z,95392.56
2017-10-25T02:42:45.340Z,95387.98
2017-10-25T02:45:13.689Z,95389.31
2017-10-25T02:47:42.064Z,95382.13
2017-10-25T02:50:10.426Z,95379.03
2017-10-25T02:52:38.759Z,95380.34
2017-10-25T02:55:07.109Z,95388.55
2017-10-25T02:57:35.483Z,95379.73
2017-10-25T03:00:03.834Z,95376.44
2017-10-25T03:02:32.199Z,95375.12
2017-10-25T03:05:00.549Z,95382.80
2017-10-25T03:07:28.903Z,95386.77
2017-10-25T03:09:57.278Z,95382.63
2017-10-25T03:12:25.633Z,95386.30
2017-10-25T03:14:54.109Z,95389.28
2017-10-25T03:17:22.460Z,95386.38
2017-10-25T03:19:50.802Z,95381.75
2017-10-25T03:22:19.186Z,95378.53
2017-10-25T03:24:47.558Z,95388.30
2017-10-25T03:27:15.915Z,95373.14
2017-10-25T03:29:44.282Z,95376.99
2017-10-25T03:32:12.664Z,95382.22
2017-10-25T03:34:41.011Z,95388.73
2017-10-25T03:37:09.358Z,95386.80
2017-10-25T03:39:37.700Z,95384.84
2017-10-25T03:42:06.047Z,95385.53
2017-10-25T03:44:34.414Z,95372.80
2017-10-25T03:47:02.762Z,95370.98
2017-10-25T03:49:31.143Z,95375.24
2017-10-25T03:51:59.488Z,95377.56
2017-10-25T03:54:27.821Z,95374.52
2017-10-25T03:56:56.162Z,95369.53
2017-10-25T03:59:24.519Z,95363.11
2017-10-25T04:01:52.983Z,95368.83
2017-10-25T04:04:21.335Z,95368.61
2017-10-25T04:06:49.676Z,95363.65
2017-10-25T04:09:18.020Z,95359.00
2017-10-25T04:11:46.494Z,95360.66
2017-10-25T04:14:14.830Z,95367.69
2017-10-25T04:16:43.182Z,95364.00
2017-10-25T04:19:11.531Z,95360.38
2017-10-25T04:21:39.919Z,95362.69
2017-10-25T04:24:08.264Z,95373.36
2017-10-25T04:26:36.640Z,95382.06
2017-10-25T04:29:05.006Z,95366.59
2017-10-25T04:31:33.386Z,95367.50
2017-10-25T04:34:01.771Z,95359.21
2017-10-25T04:36:30.114Z,95373.09
2017-10-25T04:38:58.478Z,95373.79
2017-10-25T04:41:26.862Z,95361.85
2017-10-25T04:43:55.215Z,95366.92
2017-10-25T04:46:23.591Z,95364.56
2017-10-25T04:48:51.936Z,95354.31
2017-10-25T04:51:20.311Z,95349.11
2017-10-25T04:53:48.659Z,95350.41
2017-10-25T04:56:17.035Z,95343.76
2017-10-25T04:58:45.382Z,95357.44
2017-10-25T05:01:13.751Z,95356.56
2017-10-25T05:03:42.108Z,95350.31
2017-10-25T05:06:10.467Z,95361.38
2017-10-25T05:08:38.824Z,95358.61
2017-10-25T05:11:07.167Z,95353.66
2017-10-25T05:13:35.534Z,95355.75
2017-10-25T05:16:03.879Z,95369.05
2017-10-25T05:18:32.246Z,95363.78
2017-10-25T05:21:00.598Z,95358.75
2017-10-25T05:23:28.974Z,95353.29
2017-10-25T05:25:57.330Z,95358.53
2017-10-25T05:28:25.682Z,95371.84
2017-10-25T05:31:01.147Z,95354.48
2017-10-25T05:33:29.478Z,95355.61
2017-10-25T05:35:57.842Z,95356.95
2017-10-25T05:38:26.190Z,95353.05
2017-10-25T05:40:55.174Z,95351.38
2017-10-25T05:43:23.535Z,95349.95
2017-10-25T05:45:51.881Z,95360.57
2017-10-25T05:48:20.264Z,95364.10
2017-10-25T05:50:48.617Z,95358.52
2017-10-25T05:53:17.217Z,95369.83
2017-10-25T05:55:45.819Z,95372.73
2017-10-25T05:58:14.452Z,95361.25
2017-10-25T06:00:42.981Z,95348.09
2017-10-25T06:03:11.977Z,95343.28
2017-10-25T06:05:40.622Z,95344.54
2017-10-25T06:08:09.023Z,95350.54
2017-10-25T06:10:37.371Z,95360.42
2017-10-25T06:13:05.715Z,95355.48
2017-10-25T06:15:34.072Z,95358.45
2017-10-25T06:18:02.403Z,95361.81
2017-10-25T06:20:30.775Z,95367.80
2017-10-25T06:22:59.135Z,95357.67
2017-10-25T06:25:27.499Z,95362.98
2017-10-25T06:27:55.847Z,95362.35
2017-10-25T06:30:24.222Z,95350.92
2017-10-25T06:32:52.580Z,95355.80
2017-10-25T06:35:20.959Z,95350.63
2017-10-25T06:37:49.304Z,95355.02
2017-10-25T06:40:17.647Z,95356.98
2017-10-25T06:42:46.015Z,95350.11
2017-10-25T06:45:14.362Z,95351.52
2017-10-25T06:47:42.728Z,95353.86
2017-10-25T06:50:11.166Z,95348.20
2017-10-25T06:52:39.548Z,95359.45
2017-10-25T06:55:07.914Z,95355.02
2017-10-25T06:57:36.255Z,95352.08
2017-10-25T07:00:04.619Z,95353.77
2017-10-25T07:02:32.968Z,95355.56
2017-10-25T07:05:01.315Z,95346.64
2017-10-25T07:07:29.698Z,95351.80
2017-10-25T07:09:58.031Z,95354.01
2017-10-25T07:12:26.395Z,95347.53
2017-10-25T07:14:54.737Z,95352.99
2017-10-25T07:17:23.117Z,95349.39
2017-10-25T07:19:51.456Z,95347.70
2017-10-25T07:22:19.808Z,95338.36
2017-10-25T07:24:48.191Z,95341.89
2017-10-25T07:27:17.116Z,95347.41
2017-10-25T07:29:45.472Z,95354.84
2017-10-25T07:32:13.840Z,95353.97
2017-10-25T07:34:42.183Z,95355.38
2017-10-25T07:37:10.551Z,95354.38
2017-10-25T07:39:38.905Z,95363.53
2017-10-25T07:42:07.258Z,95362.27
2017-10-25T07:44:35.596Z,95363.78
2017-10-25T07:47:04.064Z,95361.61
2017-10-25T07:49:32.485Z,95354.63
2017-10-25T07:52:00.827Z,95356.61
2017-10-25T07:54:29.191Z,95360.63
2017-10-25T07:56:57.556Z,95357.80
2017-10-25T07:59:25.945Z,95368.98
2017-10-25T08:01:54.313Z,95369.88
2017-10-25T08:04:22.676Z,95387.69
2017-10-25T08:06:51.008Z,95387.72
2017-10-25T08:09:19.389Z,95386.25
2017-10-25T08:11:47.827Z,95380.38
2017-10-25T08:14:16.429Z,95380.38
2017-10-25T08:16:44.802Z,95380.93
2017-10-25T08:19:13.142Z,95377.84
2017-10-25T08:21:41.529Z,95375.25
2017-10-25T08:24:09.864Z,95373.20
2017-10-25T08:26:38.235Z,95379.61
2017-10-25T08:29:06.572Z,95369.05
2017-10-25T08:31:34.936Z,95365.25
2017-10-25T08:34:03.283Z,95364.34
2017-10-25T08:36:31.676Z,95363.69
2017-10-25T08:39:00.025Z,95372.15
2017-10-25T08:41:28.371Z,95364.08
2017-10-25T08:43:56.724Z,95360.57
2017-10-25T08:46:25.073Z,95360.16
2017-10-25T08:48:53.450Z,95364.60
2017-10-25T08:51:21.779Z,95360.70
2017-10-25T08:53:50.125Z,95370.61
2017-10-25T08:56:18.476Z,95368.39
2017-10-25T08:58:46.821Z,95368.48
2017-10-25T09:01:15.155Z,95365.39
2017-10-25T09:03:43.494Z,95366.30
2017-10-25T09:06:11.870Z,95373.34
2017-10-25T09:08:40.234Z,95365.53
2017-10-25T09:11:08.610Z,95371.52
2017-10-25T09:13:36.946Z,95375.53
2017-10-25T09:16:05.326Z,95371.79
2017-10-25T09:18:33.680Z,95372.80
2017-10-25T09:21:02.217Z,95382.06
2017-10-25T09:23:30.579Z,95371.64
2017-10-25T09:25:59.014Z,95359.41
2017-10-25T09:28:27.362Z,95362.50
2017-10-25T09:30:55.703Z,95365.27
2017-10-25T09:33:24.077Z,95366.05
2017-10-25T09:35:52.470Z,95378.42
2017-10-25T09:38:20.817Z,95373.33
2017-10-25T09:40:49.187Z,95361.17
2017-10-25T09:43:17.707Z,95362.62
2017-10-25T09:45:46.090Z,95366.19
2017-10-25T09:48:14.476Z,95380.58
2017-10-25T09:50:42.846Z,95371.92
2017-10-25T09:53:11.232Z,95385.80
2017-10-25T09:55:39.563Z,95379.17
2017-10-25T09:58:07.899Z,95378.75
2017-10-25T10:00:36.266Z,95380.94
2017-10-25T10:03:04.640Z,95379.43
2017-10-25T10:05:32.974Z,95386.41
2017-10-25T10:08:01.334Z,95380.84
2017-10-25T10:10:29.676Z,95389.22
2017-10-25T10:12:58.006Z,95392.73
2017-10-25T10:15:26.421Z,95398.17
2017-10-25T10:17:54.771Z,95406.07
2017-10-25T10:20:23.145Z,95403.87
2017-10-25T10:22:51.514Z,95403.42
2017-10-25T10:25:19.855Z,95402.77
2017-10-25T10:27:48.236Z,95407.80
2017-10-25T10:30:16.575Z,95418.66
2017-10-25T10:32:44.976Z,95422.30
2017-10-25T10:35:13.327Z,95421.52
2017-10-25T10:37:41.707Z,95424.95
2017-10-25T10:40:10.082Z,95412.66
2017-10-25T10:42:38.436Z,95424.58
2017-10-25T10:45:06.792Z,95420.66
2017-10-25T10:47:35.155Z,95425.02
2017-10-25T10:50:03.489Z,95435.58
2017-10-25T10:52:31.859Z,95426.51
2017-10-25T10:55:00.195Z,95430.20
2017-10-25T10:57:28.546Z,95429.64
2017-10-25T10:59:56.888Z,95420.88
2017-10-25T11:02:25.271Z,95411.94
2017-10-25T11:04:53.648Z,95419.09
2017-10-25T11:07:22.008Z,95422.73
2017-10-25T11:09:50.378Z,95404.75
2017-10-25T11:12:18.732Z,95407.75
2017-10-25T11:14:47.106Z,95412.45
2017-10-25T11:17:16.131Z,95408.42
2017-10-25T11:19:44.544Z,95416.20
2017-10-25T11:22:12.884Z,95412.92
2017-10-25T11:24:41.235Z,95419.98
2017-10-25T11:27:09.603Z,95412.84
2017-10-25T11:29:37.984Z,95408.14
2017-10-25T11:32:06.346Z,95413.59
2017-10-25T11:34:34.734Z,95405.46
2017-10-25T11:37:04.387Z,95407.67
2017-10-25T11:39:32.746Z,95413.97
2017-10-25T11:42:01.084Z,95418.55
2017-10-25T11:44:29.679Z,95415.75
2017-10-25T11:46:58.032Z,95415.34
2017-10-25T11:49:26.374Z,95418.05
2017-10-25T11:51:54.727Z,95419.45
2017-10-25T11:54:23.095Z,95419.69
2017-10-25T11:56:51.465Z,95419.97
2017-10-25T11:59:19.833Z,95422.72
2017-10-25T12:01:48.211Z,95427.45
2017-10-25T12:04:16.571Z,95427.27
2017-10-25T12:06:44.904Z,95422.13
2017-10-25T12:09:13.291Z,95422.89
2017-10-25T12:11:41.655Z,95433.53
2017-10-25T12:14:10.004Z,95428.82
2017-10-25T12:16:38.349Z,95433.45
2017-10-25T12:19:06.692Z,95434.02
2017-10-25T12:21:35.055Z,95429.17
2017-10-25T12:24:03.399Z,95430.93
2017-10-25T12:26:31.760Z,95430.03
2017-10-25T12:29:00.105Z,95434.75
2017-10-25T12:31:28.455Z,95428.27
2017-10-25T12:33:56.791Z,95423.92
2017-10-25T12:36:25.141Z,95430.40
2017-10-25T12:38:53.510Z,95430.81
2017-10-25T12:41:21.867Z,95425.63
2017-10-25T12:43:50.234Z,95431.72
2017-10-25T12:46:18.575Z,95441.00
2017-10-25T12:48:46.938Z,95438.38
2017-10-25T12:51:15.306Z,95434.28
2017-10-25T12:53:43.652Z,95433.41
2017-10-25T12:56:11.996Z,95427.45
2017-10-25T12:58:40.337Z,95441.22
2017-10-25T13:01:08.697Z,95436.64
2017-10-25T13:03:37.050Z,95430.06
2017-10-25T13:06:05.435Z,95447.52
2017-10-25T13:08:33.775Z,95457.03
2017-10-25T13:11:03.533Z,95449.05
2017-10-25T13:13:34.311Z,95455.23
2017-10-25T13:16:06.671Z,95456.88
2017-10-25T13:18:39.034Z,95461.77
2017-10-25T13:21:07.595Z,95461.67
2017-10-25T13:23:35.927Z,95457.49
2017-10-25T13:26:04.312Z,95457.06
2017-10-25T13:28:32.656Z,95470.24
2017-10-25T13:31:01.072Z,95475.38
2017-10-25T13:33:29.447Z,95477.87
2017-10-25T13:35:57.815Z,95494.59
2017-10-25T13:38:26.187Z,95496.75
2017-10-25T13:40:54.559Z,95497.47
2017-10-25T13:43:22.976Z,95497.08
2017-10-25T13:46:02.007Z,95498.40
2017-10-25T13:48:30.481Z,95493.47
2017-10-25T13:50:58.844Z,95488.93
2017-10-25T13:53:27.200Z,95481.08
2017-10-25T13:55:55.587Z,95485.38
2017-10-25T13:58:23.947Z,95494.00
2017-10-25T14:00:52.444Z,95493.95
2017-10-25T14:03:20.875Z,95495.77
2017-10-25T14:05:49.218Z,95495.87
2017-10-25T14:08:31.499Z,95500.41
2017-10-25T14:11:00.201Z,95502.80
2017-10-25T14:13:29.671Z,95507.95
2017-10-25T14:15:59.604Z,95513.33
2017-10-25T14:18:28.000Z,95506.89
2017-10-25T14:20:56.359Z,95517.31
2017-10-25T14:23:24.852Z,95514.61
2017-10-25T14:25:53.219Z,95507.02
2017-10-25T14:28:33.197Z,95499.70
2017-10-25T14:31:01.570Z,95503.45
2017-10-25T14:33:29.957Z,95494.06
2017-10-25T14:35:58.391Z,95493.70
2017-10-25T14:38:26.750Z,95489.06
2017-10-25T14:40:55.110Z,95496.63
2017-10-25T14:43:23.512Z,95497.10
2017-10-25T14:45:52.798Z,95499.98
2017-10-25T14:48:22.004Z,95485.05
2017-10-25T14:50:50.387Z,95488.52
2017-10-25T14:53:18.832Z,95492.86
2017-10-25T14:55:47.207Z,95489.14
2017-10-25T14:58:15.675Z,95498.27
2017-10-25T15:00:44.031Z,95505.05
2017-10-25T15:03:12.410Z,95506.44
2017-10-25T15:05:40.780Z,95510.83
2017-10-25T15:08:09.159Z,95511.80
2017-10-25T15:10:37.526Z,95505.63
2017-10-25T15:13:05.901Z,95503.66
2017-10-25T15:15:34.264Z,95517.73
2017-10-25T15:18:02.653Z,95518.27
2017-10-25T15:20:31.025Z,95522.19
2017-10-25T15:22:59.391Z,95526.21
2017-10-25T15:25:27.747Z,95535.22
2017-10-25T15:27:56.115Z,95538.89
2017-10-25T15:30:24.467Z,95539.15
2017-10-25T15:32:52.851Z,95542.23
2017-10-25T15:35:21.240Z,95534.62
2017-10-25T15:37:49.600Z,95550.63
2017-10-25T15:40:17.982Z,95544.79
2017-10-25T15:42:46.369Z,95551.32
2017-10-25T15:45:14.726Z,95551.36
2017-10-25T15:47:43.147Z,95557.16
2017-10-25T15:50:11.510Z,95555.18
2017-10-25T15:52:39.862Z,95558.37
2017-10-25T15:55:08.223Z,95561.63
2017-10-25T15:57:36.574Z,95567.66
2017-10-25T16:00:04.975Z,95563.35
2017-10-25T16:02:33.341Z,95569.55
2017-10-25T16:05:01.700Z,95569.98
2017-10-25T16:07:30.995Z,95577.95
2017-10-25T16:09:59.391Z,95571.89
2017-10-25T16:12:27.796Z,95565.95
2017-10-25T16:14:56.199Z,95575.48
2017-10-25T16:17:24.545Z,95575.18
2017-10-25T16:19:52.929Z,95573.23
2017-10-25T16:22:21.304Z,95581.73
2017-10-25T16:24:49.683Z,95584.10
2017-10-25T16:27:18.064Z,95573.27
2017-10-25T16:29:46.411Z,95586.09
2017-10-25T16:32:14.784Z,95591.77
2017-10-25T16:34:43.178Z,95585.79
2017-10-25T16:37:11.523Z,95581.73
2017-10-25T16:39:39.875Z,95587.56
2017-10-25T16:42:08.218Z,95585.36
2017-10-25T16:44:36.596Z,95587.31
2017-10-25T16:47:04.972Z,95594.20
2017-10-25T16:49:33.331Z,95599.22
2017-10-25T16:52:01.710Z,95601.73
2017-10-25T16:54:30.114Z,95606.39
2017-10-25T16:56:58.474Z,95600.08
2017-10-25T16:59:26.856Z,95597.44
2017-10-25T17:01:55.215Z,95602.06
2017-10-25T17:04:23.595Z,95603.84
2017-10-25T17:06:51.972Z,95604.20
2017-10-25T17:09:20.339Z,95611.20
2017-10-25T17:11:49.647Z,95608.44
2017-10-25T17:14:17.996Z,95610.69
2017-10-25T17:16:46.388Z,95613.75
2017-10-25T17:19:14.742Z,95622.98
2017-10-25T17:21:43.119Z,95620.56
2017-10-25T17:24:11.466Z,95624.98
2017-10-25T17:26:39.855Z,95624.77
2017-10-25T17:29:08.206Z,95626.18
2017-10-25T17:31:36.603Z,95630.00
2017-10-25T17:34:04.980Z,95633.84
2017-10-25T17:36:33.364Z,95639.52
2017-10-25T17:39:01.758Z,95638.78
2017-10-25T17:41:30.106Z,95638.23
2017-10-25T17:43:58.466Z,95643.95
2017-10-25T17:46:26.854Z,95651.74
2017-10-25T17:48:55.207Z,95647.20
2017-10-25T17:51:23.595Z,95666.45
2017-10-25T17:53:51.943Z,95666.39
2017-10-25T17:56:20.315Z,95668.45
2017-10-25T17:58:48.657Z,95666.14
2017-10-25T18:01:17.052Z,95660.05
2017-10-25T18:03:45.395Z,95663.62
2017-10-25T18:06:14.019Z,95664.43
2017-10-25T18:08:42.467Z,95665.06
2017-10-25T18:11:10.821Z,95667.05
2017-10-25T18:13:39.162Z,95669.18
2017-10-25T18:16:07.527Z,95678.50
2017-10-25T18:18:35.871Z,95674.77
2017-10-25T18:21:04.246Z,95669.94
2017-10-25T18:23:32.667Z,95666.94
2017-10-25T18:26:01.036Z,95672.07
2017-10-25T18:28:29.390Z,95672.34
2017-10-25T18:30:57.739Z,95667.61
2017-10-25T18:33:26.091Z,95674.84
2017-10-25T18:35:54.452Z,95673.06
2017-10-25T18:38:22.790Z,95671.39
2017-10-25T18:40:51.176Z,95680.77
2017-10-25T18:43:19.531Z,95685.72
2017-10-25T18:45:47.892Z,95680.56
2017-10-25T18:48:16.275Z,95675.66
2017-10-25T18:50:44.623Z,95688.38
2017-10-25T18:53:12.999Z,95687.87
2017-10-25T18:55:41.358Z,95680.09
2017-10-25T18:58:09.713Z,95683.48
2017-10-25T19:00:38.089Z,95682.17
2017-10-25T19:03:06.482Z,95685.30
2017-10-25T19:05:34.875Z,95683.55
2017-10-25T19:08:03.257Z,95689.38
2017-10-25T19:10:31.635Z,95690.45
2017-10-25T19:12:59.994Z,95681.86
2017-10-25T19:15:28.367Z,95696.48
2017-10-25T19:17:56.824Z,95693.84
2017-10-25T19:20:25.202Z,95697.78
2017-10-25T19:22:53.546Z,95703.64
2017-10-25T19:25:21.922Z,95702.52
2017-10-25T19:27:50.301Z,95703.91
2017-10-25T19:30:18.686Z,95708.62
2017-10-25T19:32:47.046Z,95707.46
2017-10-25T19:35:15.475Z,95710.72
2017-10-25T19:37:43.855Z,95712.14
2017-10-25T19:40:12.252Z,95718.44
2017-10-25T19:42:40.607Z,95716.97
2017-10-25T19:45:08.997Z,95718.78
2017-10-25T19:47:37.354Z,95723.38
2017-10-25T19:50:05.736Z,95727.27
2017-10-25T19:52:34.111Z,95724.75
2017-10-25T19:55:02.767Z,95729.80
2017-10-25T19:57:32.388Z,95735.89
2017-10-25T20:00:00.739Z,95733.81
2017-10-25T20:02:29.104Z,95733.77
2017-10-25T20:04:57.462Z,95741.21
2017-10-25T20:07:25.843Z,95738.69
2017-10-25T20:09:54.203Z,95750.88
2017-10-25T20:12:22.573Z,95752.00
2017-10-25T20:14:50.958Z,95734.09
2017-10-25T20:17:19.323Z,95738.23
2017-10-25T20:19:47.720Z,95754.21
2017-10-25T20:22:16.096Z,95751.20
2017-10-25T20:24:44.444Z,95750.55
2017-10-25T20:27:12.791Z,95744.72
2017-10-25T20:29:41.218Z,95755.17
2017-10-25T20:32:09.571Z,95760.11
2017-10-25T20:34:37.932Z,95758.81
2017-10-25T20:37:06.313Z,95759.01
2017-10-25T20:39:34.683Z,95755.16
2017-10-25T20:42:03.060Z,95756.09
2017-10-25T20:44:31.409Z,95762.52
2017-10-25T20:46:59.808Z,95758.74
2017-10-25T20:49:28.222Z,95756.67
2017-10-25T20:51:56.571Z,95755.94
2017-10-25T20:54:24.954Z,95760.69
2017-10-25T20:56:53.313Z,95753.56
2017-10-25T20:59:21.666Z,95757.31
2017-10-25T21:01:50.104Z,95755.61
2017-10-25T21:04:18.518Z,95758.61
2017-10-25T21:06:46.914Z,95769.06
2017-10-25T21:09:15.398Z,95770.39
2017-10-25T21:11:43.743Z,95767.74
2017-10-25T21:14:12.154Z,95773.13
2017-10-25T21:16:40.512Z,95773.75
2017-10-25T21:19:08.888Z,95791.34
2017-10-25T21:21:37.254Z,95797.19
2017-10-25T21:24:05.602Z,95809.37
2017-10-25T21:26:33.992Z,95792.14
2017-10-25T21:29:02.348Z,95777.80
2017-10-25T21:31:30.804Z,95777.06
2017-10-25T21:33:59.150Z,95780.70
2017-10-25T21:36:27.498Z,95787.97
2017-10-25T21:38:55.910Z,95777.96
2017-10-25T21:41:24.263Z,95774.67
2017-10-25T21:43:52.639Z,95780.17
2017-10-25T21:46:21.036Z,95779.11
2017-10-25T21:48:49.386Z,95780.27
2017-10-25T21:51:17.858Z,95781.88
2017-10-25T21:53:46.235Z,95791.28
2017-10-25T21:56:14.607Z,95798.74
2017-10-25T21:58:42.991Z,95797.73
2017-10-25T22:01:11.367Z,95798.72
2017-10-25T22:03:39.767Z,95800.56
2017-10-25T22:06:08.200Z,95796.44
2017-10-25T22:08:37.847Z,95791.38
2017-10-25T22:11:06.286Z,95783.00
2017-10-25T22:13:34.636Z,95784.48
2017-10-25T22:16:02.998Z,95780.94
2017-10-25T22:18:31.360Z,95780.16
2017-10-25T22:20:59.748Z,95790.41
2017-10-25T22:23:28.107Z,95788.44
2017-10-25T22:25:57.433Z,95786.25
2017-10-25T22:28:26.133Z,95779.42
2017-10-25T22:30:54.493Z,95767.11
2017-10-25T22:33:22.871Z,95756.73
2017-10-25T22:35:51.225Z,95765.47
2017-10-25T22:38:19.587Z,95781.24
2017-10-25T22:40:47.955Z,95788.38
2017-10-25T22:43:16.393Z,95786.37
2017-10-25T22:45:44.853Z,95788.55
2017-10-25T22:48:13.213Z,95783.73
2017-10-25T22:50:41.619Z,95779.05
2017-10-25T22:53:10.004Z,95780.13
2017-10-25T22:55:38.396Z,95784.35
2017-10-25T22:58:06.782Z,95783.05
2017-10-25T23:00:35.151Z,95790.91
2017-10-25T23:03:03.514Z,95793.26
2017-10-25T23:05:32.007Z,95793.44
2017-10-25T23:08:00.370Z,95798.50
2017-10-25T23:10:28.731Z,95802.97
2017-10-25T23:12:57.099Z,95808.34
2017-10-25T23:15:25.474Z,95804.45
2017-10-25T23:17:53.843Z,95805.12
2017-10-25T23:20:22.201Z,95803.03
2017-10-25T23:22:50.579Z,95798.95
2017-10-25T23:25:18.957Z,95801.36
2017-10-25T23:27:47.330Z,95794.66
2017-10-25T23:30:15.678Z,95788.43
2017-10-25T23:32:44.962Z,95784.55
2017-10-25T23:35:13.382Z,95790.47
2017-10-25T23:37:41.735Z,95794.16
2017-10-25T23:40:10.083Z,95795.73
2017-10-25T23:42:38.448Z,95797.23
2017-10-25T23:45:06.839Z,95800.45
2017-10-25T23:47:35.182Z,95807.21
2017-10-25T23:50:03.549Z,95808.73
2017-10-25T23:55:06.409Z,95811.50
2017-10-25T23:57:36.608Z,95816.37
